Time;durP1;ratioP1;P1;durP2;ratioP2;P2;SDS_P1;SDS_P2;PMS_P1;PMS_P2;Temp;Humidity;BMP_temperature;BMP_pressure;BME280_temperature;BME280_humidity;BME280_pressure;Samples;Min_cycle;Max_cycle;Signal;HPM_P1;HPM_P2
2022/11/04 00:01:45;;;;;;;13.52;8.20;;;;;;;10.61;63.30;93616.38;5093558;28;20071;-35
2022/11/04 00:04:11;;;;;;;14.20;9.02;;;;;;;10.65;63.40;93611.25;5093721;28;20078;-35
2022/11/04 00:06:37;;;;;;;14.18;8.18;;;;;;;10.63;63.85;93605.53;5094043;28;20016;-35
2022/11/04 00:09:04;;;;;;;13.32;7.90;;;;;;;10.60;63.79;93603.13;5093977;28;20053;-35
2022/11/04 00:14:15;;;;;;;13.68;7.80;;;;;;;10.57;64.18;93599.44;5093925;28;20035;-35
2022/11/04 00:19:25;;;;;;;18.83;7.80;;;;;;;10.53;64.29;93601.06;5093860;28;20038;-35
2022/11/04 00:29:53;;;;;;;12.65;8.00;;;;;;;10.54;64.21;93586.00;5073051;28;20082;-35
2022/11/04 00:35:04;;;;;;;13.52;7.57;;;;;;;10.55;64.06;93590.97;5093576;28;20561;-35
2022/11/04 00:37:29;;;;;;;15.38;7.82;;;;;;;10.55;64.44;93590.97;5093444;28;20103;-35
2022/11/04 00:39:54;;;;;;;16.00;8.50;;;;;;;10.44;64.16;93585.75;5093080;28;20103;-35
2022/11/04 00:42:20;;;;;;;15.07;8.88;;;;;;;10.46;64.50;93585.94;5075282;28;20028;-35
2022/11/04 00:44:45;;;;;;;15.15;8.10;;;;;;;10.42;64.47;93588.31;5092123;28;20035;-35
2022/11/04 00:47:11;;;;;;;15.38;9.40;;;;;;;10.37;64.69;93578.16;5092984;28;20028;-35
2022/11/04 00:49:36;;;;;;;12.30;7.68;;;;;;;10.38;64.51;93576.91;5092829;28;20027;-35
2022/11/04 00:52:02;;;;;;;14.70;8.55;;;;;;;10.37;64.84;93575.41;5093194;28;20019;-35
2022/11/04 00:54:27;;;;;;;15.90;8.40;;;;;;;10.29;65.07;93574.63;5092891;28;20081;-35
2022/11/04 00:56:53;;;;;;;16.60;8.40;;;;;;;10.10;64.58;93568.63;5074743;28;20024;-35
2022/11/04 00:59:18;;;;;;;16.13;9.25;;;;;;;9.83;65.26;93575.63;5093010;28;20027;-35
2022/11/04 01:01:44;;;;;;;14.63;8.35;;;;;;;9.87;64.96;93573.97;5072211;28;20524;-35
2022/11/04 01:04:10;;;;;;;11.95;8.90;;;;;;;9.88;65.11;93577.47;5072795;28;20039;-35
2022/11/04 01:06:35;;;;;;;19.60;9.02;;;;;;;9.84;65.20;93555.03;5072371;28;20567;-35
2022/11/04 01:09:04;;;;;;;16.15;8.85;;;;;;;10.06;66.30;93576.50;5072370;28;20024;-35
2022/11/04 01:11:30;;;;;;;;;;;;;;;10.07;66.29;93569.69;5072900;28;20029;-35
2022/11/04 01:13:56;;;;;;;14.35;7.47;;;;;;;10.08;66.34;93565.66;5072168;28;19915;-35
2022/11/04 01:16:22;;;;;;;10.48;7.13;;;;;;;10.08;66.52;93565.66;5072565;28;20043;-35
2022/11/04 01:18:47;;;;;;;13.43;7.97;;;;;;;10.11;66.05;93556.34;5072380;28;20186;-35
2022/11/04 01:21:14;;;;;;;12.77;8.70;;;;;;;10.04;66.03;93570.78;5072354;28;20476;-35
2022/11/04 01:23:41;;;;;;;13.20;7.78;;;;;;;10.01;66.09;93565.59;5072087;28;20029;-35
2022/11/04 01:26:08;;;;;;;18.13;7.68;;;;;;;9.91;64.93;93565.38;5071926;28;20381;-35
2022/11/04 01:28:33;;;;;;;15.63;8.80;;;;;;;9.77;65.24;93559.22;5072161;28;20441;-35
2022/11/04 01:31:03;;;;;;;10.77;7.78;;;;;;;9.67;65.76;93560.97;5071858;28;20158;-35
2022/11/04 01:33:29;;;;;;;14.45;7.50;;;;;;;9.76;66.63;93557.00;5052027;28;20029;-35
2022/11/04 01:35:58;;;;;;;14.68;9.02;;;;;;;9.77;66.49;93555.72;5051730;28;20036;-35
2022/11/04 01:38:24;;;;;;;15.43;7.80;;;;;;;9.69;66.12;93552.16;5052014;28;20028;-35
2022/11/04 01:40:49;;;;;;;18.55;8.80;;;;;;;9.67;66.50;93549.97;5051979;28;20585;-35
2022/11/04 01:43:17;;;;;;;12.82;8.32;;;;;;;9.58;66.61;93547.69;5051923;28;20436;-35
2022/11/04 01:45:45;;;;;;;11.60;7.55;;;;;;;9.37;66.34;93537.94;5058810;28;20047;-35
2022/11/04 01:48:20;;;;;;;12.95;7.50;;;;;;;9.50;66.06;93541.38;5071626;28;20024;-35
2022/11/04 01:50:47;;;;;;;13.32;8.48;;;;;;;9.35;66.92;93546.75;5071472;28;20082;-35
2022/11/04 01:53:20;;;;;;;13.68;9.05;;;;;;;9.30;67.43;93536.59;5070565;28;20086;-35
2022/11/04 01:55:53;;;;;;;11.65;8.23;;;;;;;9.18;67.27;93540.19;5071311;28;20020;-35
2022/11/04 01:58:21;;;;;;;16.17;8.52;;;;;;;9.08;67.06;93532.38;5071314;28;20532;-35
2022/11/04 02:00:47;;;;;;;19.90;9.88;;;;;;;9.07;67.99;93525.38;5069832;28;20535;-35
2022/11/04 02:03:17;;;;;;;12.27;8.55;;;;;;;9.15;68.78;93528.22;5070450;28;20077;-35
2022/11/04 02:05:43;;;;;;;13.23;8.73;;;;;;;9.22;69.03;93522.03;5071523;28;20111;-35
2022/11/04 02:08:09;;;;;;;13.93;8.98;;;;;;;9.19;68.61;93517.59;5071457;28;20029;-35
2022/11/04 02:10:36;;;;;;;12.20;8.10;;;;;;;9.19;69.50;93503.81;5069901;28;20020;-35
2022/11/04 02:13:03;;;;;;;13.00;8.25;;;;;;;9.12;69.20;93504.50;5069905;28;20059;-35
2022/11/04 02:15:32;;;;;;;17.15;8.73;;;;;;;9.05;68.75;93507.94;5071391;28;20027;-35
2022/11/04 02:18:13;;;;;;;20.30;8.75;;;;;;;9.15;69.42;93511.69;5070154;28;20028;-35
2022/11/04 02:21:17;;;;;;;18.85;9.23;;;;;;;8.92;69.97;93514.22;5070935;28;20020;-35
2022/11/04 02:23:52;;;;;;;16.05;8.10;;;;;;;8.86;69.23;93519.13;5069995;28;20044;-35
2022/11/04 02:26:41;;;;;;;19.02;9.32;;;;;;;8.80;69.57;93515.78;5070552;28;20035;-35
2022/11/04 02:29:25;;;;;;;16.50;8.95;;;;;;;8.78;69.42;93517.56;5070772;28;20028;-35
2022/11/04 02:32:01;;;;;;;15.65;8.68;;;;;;;8.69;69.91;93516.03;5069540;28;20037;-35
2022/11/04 02:34:33;;;;;;;15.65;9.70;;;;;;;8.80;71.79;93523.28;5052737;28;20029;-35
2022/11/04 02:37:07;;;;;;;18.00;9.95;;;;;;;8.84;70.97;93518.94;5069737;28;20055;-35
2022/11/04 02:39:37;;;;;;;24.23;10.10;;;;;;;9.04;71.96;93509.94;5069786;28;20405;-35
2022/11/04 02:42:02;;;;;;;16.10;9.48;;;;;;;9.07;71.93;93513.66;5069298;28;20040;-35
2022/11/04 02:44:37;;;;;;;21.20;9.38;;;;;;;9.15;71.68;93506.19;5070561;28;20119;-35
2022/11/04 02:47:06;;;;;;;16.77;9.13;;;;;;;9.16;71.60;93515.91;5049361;28;20111;-35
2022/11/04 02:49:56;;;;;;;16.40;9.38;;;;;;;9.11;70.95;93503.03;5049583;28;20032;-35
2022/11/04 02:52:28;;;;;;;16.15;9.68;;;;;;;9.08;71.72;93504.84;5050492;28;20583;-35
2022/11/04 02:54:59;;;;;;;16.52;9.25;;;;;;;9.02;71.67;93512.50;5067940;28;20020;-35
2022/11/04 02:57:28;;;;;;;20.35;9.65;;;;;;;9.04;71.82;93509.19;5069501;28;20036;-35
2022/11/04 03:00:01;;;;;;;14.65;9.18;;;;;;;9.01;71.95;93518.53;5075070;28;20072;-35
2022/11/04 03:02:32;;;;;;;16.40;9.13;;;;;;;9.00;71.80;93506.03;5072497;28;20452;-35
2022/11/04 03:04:58;;;;;;;13.95;9.25;;;;;;;8.91;72.20;93526.53;5072444;28;20069;-35
2022/11/04 03:07:28;;;;;;;13.68;9.68;;;;;;;8.73;72.22;93504.66;5090390;28;20035;-35
2022/11/04 03:10:00;;;;;;;15.75;10.35;;;;;;;8.65;72.98;93515.63;5072160;28;20102;-35
2022/11/04 03:12:28;;;;;;;17.25;9.45;;;;;;;8.66;73.42;93503.34;5072437;28;20023;-35
2022/11/04 03:15:00;;;;;;;18.40;10.88;;;;;;;8.79;73.30;93513.56;5072315;28;20035;-35
2022/11/04 03:17:31;;;;;;;18.80;10.65;;;;;;;8.68;72.71;93508.31;5072642;28;20081;-35
2022/11/04 03:20:03;;;;;;;19.85;10.32;;;;;;;8.66;72.17;93505.34;5072684;28;20032;-35
2022/11/04 03:22:29;;;;;;;17.13;10.48;;;;;;;8.69;72.65;93504.25;5072344;28;20507;-35
2022/11/04 03:24:55;;;;;;;21.33;11.52;;;;;;;8.51;73.53;93472.16;5072180;28;20031;-35
2022/11/04 03:27:48;;;;;;;15.10;10.48;;;;;;;8.65;73.11;93503.84;5090374;28;20579;-35
2022/11/04 03:30:16;;;;;;;19.23;9.82;;;;;;;8.64;72.74;93505.88;5090408;28;20462;-35
2022/11/04 03:32:43;;;;;;;17.73;10.10;;;;;;;8.50;72.94;93504.44;5090140;28;20702;-35
2022/11/04 03:35:10;;;;;;;20.85;9.30;;;;;;;8.48;75.49;93507.00;5072201;28;20081;-35
2022/11/04 03:37:35;;;;;;;17.35;12.15;;;;;;;8.58;76.12;93508.00;5072349;28;20020;-35
2022/11/04 03:40:01;;;;;;;13.85;9.65;;;;;;;8.46;73.38;93493.03;5072558;28;20051;-35
2022/11/04 03:42:27;;;;;;;14.48;9.48;;;;;;;8.50;73.67;93511.97;5072283;28;20507;-35
2022/11/04 03:44:55;;;;;;;19.35;10.23;;;;;;;8.51;74.30;93510.69;5072005;28;20034;-35
2022/11/04 03:47:23;;;;;;;20.08;10.70;;;;;;;8.43;74.59;93510.59;5090387;28;20040;-34
2022/11/04 03:49:50;;;;;;;25.60;11.73;;;;;;;8.40;74.51;93506.91;5071964;28;20137;-35
2022/11/04 03:52:16;;;;;;;16.38;10.82;;;;;;;8.46;73.88;93501.28;5072273;28;20109;-35
2022/11/04 03:54:42;;;;;;;19.45;10.82;;;;;;;8.37;73.59;93505.22;5072028;28;20483;-35
2022/11/04 03:57:51;;;;;;;15.93;10.32;;;;;;;8.35;73.77;93502.28;5090068;28;20020;-35
2022/11/04 04:00:17;;;;;;;;;;;;;;;8.14;73.34;93508.94;5078726;28;20090;-35
2022/11/04 04:02:45;;;;;;;17.98;9.80;;;;;;;8.03;73.50;93506.44;5089818;28;19912;-35
2022/11/04 04:05:30;;;;;;;18.70;9.85;;;;;;;7.89;73.57;93500.19;5090010;28;20035;-35
2022/11/04 04:08:00;;;;;;;14.75;9.50;;;;;;;7.98;72.11;93499.03;5090146;28;20035;-35
2022/11/04 04:10:37;;;;;;;17.40;10.05;;;;;;;7.89;72.85;93499.44;5089951;28;20488;-35
2022/11/04 04:13:41;;;;;;;16.35;9.48;;;;;;;7.85;73.37;93483.28;5072290;28;20511;-35
2022/11/04 04:16:09;;;;;;;18.45;9.75;;;;;;;7.87;73.05;93486.25;5090159;28;20106;-35
2022/11/04 04:18:43;;;;;;;15.60;9.98;;;;;;;7.87;74.12;93500.00;5071833;28;20055;-35
2022/11/04 04:21:12;;;;;;;23.50;12.23;;;;;;;7.89;75.01;93502.19;5074136;28;20119;-35
2022/11/04 04:29:08;;;;;;;20.30;11.98;;;;;;;8.17;77.06;93499.63;5078310;28;20101;-35
2022/11/04 04:31:48;;;;;;;17.88;11.15;;;;;;;8.23;78.99;93495.47;5093280;28;20099;-35
2022/11/04 04:34:32;;;;;;;21.30;12.10;;;;;;;8.35;79.78;93505.03;5093352;28;20053;-35
2022/11/04 04:37:17;;;;;;;19.15;11.65;;;;;;;8.42;78.79;93495.38;5075388;28;20024;-35
2022/11/04 04:45:47;;;;;;;25.93;12.47;;;;;;;8.37;78.49;93496.97;5077699;28;20133;-35
2022/11/04 04:48:13;;;;;;;19.38;11.45;;;;;;;8.47;78.86;93500.00;5089867;28;20043;-35
2022/11/04 04:50:44;;;;;;;18.38;10.65;;;;;;;8.33;79.14;93502.06;5093104;28;20024;-35
2022/11/04 04:53:10;;;;;;;23.45;11.15;;;;;;;8.34;78.99;93498.03;5093230;28;20028;-35
2022/11/04 04:55:35;;;;;;;27.17;12.75;;;;;;;8.31;77.66;93498.38;5092802;28;20393;-35
2022/11/04 04:58:00;;;;;;;21.92;11.63;;;;;;;8.40;77.80;93501.38;5092837;28;20032;-35
2022/11/04 05:00:26;;;;;;;18.00;11.52;;;;;;;8.27;77.91;93500.72;5092517;28;20048;-35
2022/11/04 05:02:51;;;;;;;25.45;12.30;;;;;;;8.34;78.04;93498.03;5092635;28;20028;-35
2022/11/04 05:05:18;;;;;;;20.60;12.10;;;;;;;8.34;79.05;93489.03;5092891;28;20035;-34
2022/11/04 05:07:43;;;;;;;20.25;11.40;;;;;;;8.40;78.40;93490.38;5092504;28;20027;-35
2022/11/04 05:10:10;;;;;;;21.50;12.65;;;;;;;8.40;77.75;93490.38;5092642;28;20039;-34
2022/11/04 05:15:21;;;;;;;24.17;13.07;;;;;;;8.25;77.83;93501.22;5092617;28;20062;-35
2022/11/04 05:17:47;;;;;;;32.50;12.38;;;;;;;8.14;77.86;93514.44;5092315;28;20481;-35
2022/11/04 05:20:12;;;;;;;37.50;13.32;;;;;;;8.19;77.74;93511.56;5092632;28;20072;-35
2022/11/04 05:22:38;;;;;;;25.67;13.15;;;;;;;8.11;77.79;93518.25;5092221;28;20016;-35
2022/11/04 05:25:04;;;;;;;21.20;12.18;;;;;;;8.23;76.50;93509.22;5092166;28;20085;-35
2022/11/04 05:27:29;;;;;;;22.38;12.73;;;;;;;8.09;76.55;93513.28;5092174;28;20416;-35
2022/11/04 05:29:55;;;;;;;23.92;13.25;;;;;;;8.15;76.20;93513.91;5092081;28;20051;-35
2022/11/04 05:32:20;;;;;;;24.73;14.02;;;;;;;8.21;76.99;93522.03;5091662;28;20020;-35
2022/11/04 05:34:46;;;;;;;22.42;12.27;;;;;;;8.28;79.07;93511.16;5092001;28;20020;-35
2022/11/04 05:37:12;;;;;;;23.42;11.85;;;;;;;8.40;79.58;93512.41;5092033;28;20133;-35
2022/11/04 05:39:37;;;;;;;21.60;12.65;;;;;;;8.45;79.27;93491.53;5092190;28;20065;-35
2022/11/04 05:42:03;;;;;;;22.13;12.75;;;;;;;8.71;79.56;93520.97;5091920;28;20415;-35
2022/11/04 05:44:28;;;;;;;22.92;13.13;;;;;;;8.65;79.43;93509.38;5092167;28;20507;-35
2022/11/04 05:46:54;;;;;;;20.75;12.65;;;;;;;8.72;79.71;93516.97;5091714;28;20484;-35
2022/11/04 05:49:19;;;;;;;20.02;11.77;;;;;;;8.83;79.29;93514.72;5092076;28;20028;-34
2022/11/04 05:51:45;;;;;;;19.35;12.02;;;;;;;8.90;78.63;93524.31;5092017;28;20625;-35
2022/11/04 05:54:11;;;;;;;23.27;13.70;;;;;;;8.97;79.35;93529.13;5091683;28;20028;-35
2022/11/04 05:56:36;;;;;;;23.63;13.70;;;;;;;8.99;79.11;93527.34;5091883;28;20088;-35
2022/11/04 05:59:02;;;;;;;22.90;14.05;;;;;;;9.05;78.77;93525.19;5091594;28;20682;-35
2022/11/04 06:01:33;;;;;;;27.48;13.15;;;;;;;9.14;78.84;93532.97;5091404;28;20055;-35
2022/11/04 06:03:59;;;;;;;22.23;13.13;;;;;;;9.24;78.93;93536.00;5091446;28;20111;-35
2022/11/04 06:06:28;;;;;;;23.83;13.63;;;;;;;9.37;78.39;93535.19;5091757;28;20393;-35
2022/11/04 06:08:54;;;;;;;;;;;;;;;9.47;78.10;93538.94;5091939;28;20074;-35
2022/11/04 06:11:20;;;;;;;19.77;11.75;;;;;;;9.58;77.58;93538.66;5091338;28;19912;-35
2022/11/04 06:13:46;;;;;;;27.10;13.18;;;;;;;9.67;77.14;93536.19;5091265;28;20031;-35
2022/11/04 06:16:11;;;;;;;30.35;14.10;;;;;;;9.75;77.32;93547.25;5091342;28;20028;-35
2022/11/04 06:18:37;;;;;;;24.63;13.32;;;;;;;9.91;76.52;93540.56;5091381;28;20062;-35
2022/11/04 06:21:30;;;;;;;29.85;14.77;;;;;;;10.25;75.87;93538.38;5091206;28;20538;-35
2022/11/04 06:23:57;;;;;;;24.75;13.45;;;;;;;10.47;74.03;93537.00;5053015;28;20051;-35
2022/11/04 06:26:26;;;;;;;20.80;13.70;;;;;;;10.54;73.67;93539.81;5091078;28;20047;-35
2022/11/04 06:28:52;;;;;;;23.77;12.98;;;;;;;10.58;73.31;93542.22;5091303;28;20039;-35
2022/11/04 06:31:18;;;;;;;23.35;13.15;;;;;;;10.75;73.25;93534.16;5091160;28;20024;-35
2022/11/04 06:33:44;;;;;;;25.48;11.90;;;;;;;10.87;72.56;93542.88;5091252;28;20020;-35
2022/11/04 06:36:12;;;;;;;23.30;11.50;;;;;;;10.89;72.47;93545.81;5091157;28;20103;-35
2022/11/04 06:38:38;;;;;;;25.33;13.30;;;;;;;10.94;72.21;93536.59;5090877;28;20089;-35
2022/11/04 06:41:06;;;;;;;66.63;15.15;;;;;;;10.82;72.09;93541.00;5090744;28;20032;-35
2022/11/04 06:43:32;;;;;;;24.35;12.40;;;;;;;10.80;72.45;93547.06;5090089;28;20027;-35
2022/11/04 06:45:59;;;;;;;19.88;13.20;;;;;;;11.09;72.10;93542.91;5090924;28;20024;-35
2022/11/04 06:48:25;;;;;;;21.00;13.00;;;;;;;11.57;70.33;93538.34;5090695;28;20032;-35
2022/11/04 06:50:52;;;;;;;20.92;11.95;;;;;;;11.84;68.13;93522.13;5090634;28;20035;-35
2022/11/04 06:53:18;;;;;;;23.27;12.40;;;;;;;11.93;67.58;93538.19;5090937;28;20028;-35
2022/11/04 06:55:44;;;;;;;19.05;12.57;;;;;;;11.82;68.21;93533.75;5090936;28;20059;-35
2022/11/04 06:58:10;;;;;;;22.08;12.98;;;;;;;12.01;66.97;93522.28;5090854;28;20494;-35
2022/11/04 07:00:35;;;;;;;19.00;11.82;;;;;;;12.21;66.58;93540.72;5090340;28;20083;-35
2022/11/04 07:03:02;;;;;;;33.45;12.30;;;;;;;11.99;66.95;93539.47;5090371;28;20028;-35
2022/11/04 07:05:32;;;;;;;21.05;12.77;;;;;;;12.32;66.34;93531.25;5090381;28;20055;-35
2022/11/04 07:07:57;;;;;;;21.50;12.77;;;;;;;12.36;65.73;93539.94;5090713;28;20434;-35
2022/11/04 07:10:23;;;;;;;16.65;11.75;;;;;;;12.01;66.32;93531.34;5090516;28;20039;-35
2022/11/04 07:12:48;;;;;;;20.92;12.25;;;;;;;11.73;67.46;93531.56;5090306;28;20548;-35
2022/11/04 07:15:13;;;;;;;21.35;13.00;;;;;;;11.74;67.91;93538.53;5090723;28;20023;-35
2022/11/04 07:17:39;;;;;;;21.40;12.77;;;;;;;12.06;67.86;93527.63;5090271;28;20110;-35
2022/11/04 07:20:05;;;;;;;22.08;11.90;;;;;;;12.93;64.93;93529.72;5090429;28;20028;-35
2022/11/04 07:22:30;;;;;;;20.05;10.40;;;;;;;13.55;61.90;93529.53;5090487;28;20056;-35
2022/11/04 07:24:56;;;;;;;17.90;11.60;;;;;;;14.50;59.69;93534.59;5089925;28;20067;-35
2022/11/04 07:27:22;;;;;;;16.08;11.18;;;;;;;15.58;55.35;93514.66;5090577;28;20427;-35
2022/11/04 07:29:47;;;;;;;16.02;10.32;;;;;;;16.22;52.93;93527.13;5090367;28;20020;-35
2022/11/04 07:32:13;;;;;;;22.02;10.93;;;;;;;16.87;52.22;93517.97;5090456;28;20020;-35
2022/11/04 07:34:38;;;;;;;14.68;9.40;;;;;;;17.58;48.66;93513.28;5090005;28;20469;-35
2022/11/04 07:37:04;;;;;;;14.70;10.60;;;;;;;17.62;48.79;93516.34;5090493;28;20035;-35
2022/11/04 07:39:29;;;;;;;19.25;10.30;;;;;;;18.26;47.53;93503.22;5090480;28;20508;-35
2022/11/04 07:41:55;;;;;;;17.95;10.30;;;;;;;18.60;45.19;93502.69;5090012;28;20028;-35
2022/11/04 07:44:22;;;;;;;31.35;10.90;;;;;;;17.80;46.64;93495.22;5090110;28;20027;-35
2022/11/04 07:46:47;;;;;;;16.88;8.45;;;;;;;17.68;46.97;93491.63;5090284;28;20031;-35
2022/11/04 07:49:13;;;;;;;15.52;9.57;;;;;;;17.75;47.73;93484.41;5090330;28;20036;-36
2022/11/04 07:51:38;;;;;;;17.67;9.77;;;;;;;17.81;46.91;93477.16;5071963;28;20051;-36
2022/11/04 07:54:04;;;;;;;18.70;10.48;;;;;;;17.95;47.01;93480.19;5090840;28;20052;-35
2022/11/04 07:56:29;;;;;;;17.42;10.68;;;;;;;18.35;46.04;93479.31;5094011;28;20043;-35
2022/11/04 07:58:55;;;;;;;14.25;9.63;;;;;;;18.96;44.57;93467.97;5093914;28;20078;-35
2022/11/04 08:01:22;;;;;;;16.40;9.57;;;;;;;19.42;43.62;93467.38;5093708;28;20044;-35
2022/11/04 08:03:49;;;;;;;13.18;9.50;;;;;;;19.80;42.48;93452.88;5094095;28;20089;-36
2022/11/04 08:06:15;;;;;;;17.55;9.65;;;;;;;20.02;42.04;93457.00;5075677;28;20408;-35
2022/11/04 08:08:42;;;;;;;17.30;9.95;;;;;;;20.29;40.94;93450.91;5094007;28;20120;-36
2022/11/04 08:11:16;;;;;;;18.77;10.57;;;;;;;19.77;41.87;93456.19;5093675;28;20020;-35
2022/11/04 08:13:42;;;;;;;14.75;9.43;;;;;;;20.10;41.37;93454.69;5093943;28;20024;-36
2022/11/04 08:16:12;;;;;;;20.88;9.45;;;;;;;20.06;40.94;93464.91;5075486;28;20409;-36
2022/11/04 08:18:38;;;;;;;17.63;8.95;;;;;;;19.42;41.90;93450.56;5093732;28;20102;-36
2022/11/04 08:21:04;;;;;;;15.18;9.40;;;;;;;19.03;42.96;93461.41;5093477;28;20506;-35
2022/11/04 08:23:29;;;;;;;13.35;9.00;;;;;;;19.78;42.22;93449.22;5093667;28;20020;-36
2022/11/04 08:25:56;;;;;;;12.50;8.75;;;;;;;20.54;40.20;93439.72;5093086;28;20020;-36
2022/11/04 08:28:23;;;;;;;13.23;8.75;;;;;;;21.37;39.35;93442.28;5093264;28;20048;-36
2022/11/04 08:30:58;;;;;;;11.02;8.60;;;;;;;22.14;37.47;93441.44;5093058;28;20016;-36
2022/11/04 08:33:25;;;;;;;14.77;8.88;;;;;;;21.93;37.52;93438.22;5093240;28;20733;-36
2022/11/04 08:35:51;;;;;;;16.60;8.50;;;;;;;21.60;37.29;93439.31;5093400;28;20080;-36
2022/11/04 08:38:17;;;;;;;13.00;8.18;;;;;;;21.09;38.09;93432.31;5093487;28;20119;-35
2022/11/04 08:40:43;;;;;;;12.75;8.73;;;;;;;20.59;39.06;93421.78;5093373;28;20471;-35
2022/11/04 08:43:08;;;;;;;12.85;8.20;;;;;;;20.70;39.01;93426.63;5093225;28;20102;-35
2022/11/04 08:45:39;;;;;;;13.98;9.10;;;;;;;20.93;38.35;93418.09;5093004;28;20468;-35
2022/11/04 08:48:04;;;;;;;10.55;8.50;;;;;;;21.42;37.94;93423.56;5093328;28;20028;-35
2022/11/04 08:50:30;;;;;;;11.90;8.48;;;;;;;22.12;36.50;93427.28;5093196;28;20031;-36
2022/11/04 08:52:56;;;;;;;15.48;8.68;;;;;;;22.77;35.96;93430.53;5092877;28;20020;-36
2022/11/04 08:55:22;;;;;;;13.80;7.90;;;;;;;23.04;34.53;93430.44;5092807;28;20555;-36
2022/11/04 08:57:47;;;;;;;12.13;7.65;;;;;;;22.76;34.56;93426.28;5074739;28;20024;-36
2022/11/04 09:00:15;;;;;;;11.70;8.50;;;;;;;23.01;34.29;93426.06;5092586;28;20063;-36
2022/11/04 09:02:40;;;;;;;8.23;7.30;;;;;;;23.50;33.63;93424.16;5092882;28;20031;-36
2022/11/04 09:05:06;;;;;;;12.68;7.43;;;;;;;23.47;33.35;93433.91;5092705;28;20115;-35
2022/11/04 09:07:31;;;;;;;15.27;7.93;;;;;;;23.67;33.74;93422.84;5091892;28;20035;-36
2022/11/04 09:09:57;;;;;;;12.43;6.72;;;;;;;23.88;32.09;93403.34;5092561;28;20024;-36
2022/11/04 09:12:22;;;;;;;10.63;7.63;;;;;;;23.89;32.74;93406.88;5092607;28;20016;-36
2022/11/04 09:14:48;;;;;;;13.90;7.50;;;;;;;24.31;31.90;93408.75;5092523;28;20024;-34
2022/11/04 09:17:14;;;;;;;11.15;7.22;;;;;;;24.45;31.15;93406.53;5092785;28;20272;-34
2022/11/04 09:19:39;;;;;;;11.23;6.72;;;;;;;24.01;31.59;93410.25;5092380;28;20415;-34
2022/11/04 09:22:05;;;;;;;13.38;8.05;;;;;;;23.68;32.19;93408.09;5092326;28;20020;-33
2022/11/04 09:24:30;;;;;;;10.02;7.53;;;;;;;23.38;33.36;93412.34;5092242;28;20077;-35
2022/11/04 09:26:56;;;;;;;10.80;7.10;;;;;;;23.28;33.51;93398.50;5091833;28;20020;-35
2022/11/04 09:29:21;;;;;;;14.07;9.10;;;;;;;23.59;32.96;93385.81;5092090;28;20035;-35
2022/11/04 09:31:49;;;;;;;13.13;8.85;;;;;;;23.74;32.69;93391.44;5092104;28;20039;-35
2022/11/04 09:34:14;;;;;;;9.88;7.95;;;;;;;23.95;32.28;93388.13;5092464;28;20099;-35
2022/11/04 09:36:40;;;;;;;10.77;7.32;;;;;;;24.48;31.81;93385.50;5092218;28;20442;-35
2022/11/04 09:39:05;;;;;;;10.38;7.15;;;;;;;24.61;31.21;93387.44;5092015;28;20522;-34
2022/11/04 09:42:12;;;;;;;12.27;7.55;;;;;;;24.29;31.49;93388.19;5092167;28;20024;-33
2022/11/04 09:44:52;;;;;;;12.88;7.78;;;;;;;24.36;31.50;93387.09;5074271;28;20380;-34
2022/11/04 09:47:21;;;;;;;10.35;7.07;;;;;;;24.19;31.58;93373.66;5071975;28;20033;-33
2022/11/04 09:49:49;;;;;;;10.45;7.93;;;;;;;24.33;31.02;93380.63;5071582;28;20021;-33
2022/11/04 09:52:24;;;;;;;13.97;7.40;;;;;;;23.79;31.96;93369.78;5071589;28;20029;-35
2022/11/04 09:55:14;;;;;;;8.90;7.20;;;;;;;23.30;32.39;93369.69;5053547;28;20032;-35
2022/11/04 09:57:39;;;;;;;9.75;7.22;;;;;;;22.81;33.51;93368.78;5049887;28;20032;-35
2022/11/04 10:00:07;;;;;;;11.93;7.03;;;;;;;22.76;33.82;93356.59;5071345;28;20147;-35
2022/11/04 10:02:59;;;;;;;10.10;6.85;;;;;;;22.26;34.58;93351.34;5071499;28;20567;-35
2022/11/04 10:05:34;;;;;;;10.70;7.20;;;;;;;22.40;34.21;93346.41;5071287;28;20500;-35
2022/11/04 10:08:08;;;;;;;15.25;6.82;;;;;;;22.19;34.40;93333.44;5071245;28;20023;-35
2022/11/04 10:10:39;;;;;;;14.65;8.30;;;;;;;22.03;35.00;93337.50;5071229;28;20493;-35
2022/11/04 10:13:20;;;;;;;9.52;6.95;;;;;;;22.38;33.88;93335.03;5071050;28;20016;-35
2022/11/04 10:15:56;;;;;;;9.63;6.50;;;;;;;22.48;34.22;93321.47;5053294;28;20024;-35
2022/11/04 10:18:36;;;;;;;10.05;7.10;;;;;;;22.50;34.00;93313.84;5068940;28;20047;-35
2022/11/04 10:21:37;;;;;;;14.00;7.80;;;;;;;22.77;33.71;93310.22;5071232;28;20032;-36
2022/11/04 10:24:14;;;;;;;12.05;6.25;;;;;;;23.25;32.90;93295.53;5060619;28;20044;-36
2022/11/04 10:26:51;;;;;;;8.95;6.55;;;;;;;23.55;32.34;93298.25;5091109;28;20093;-36
2022/11/04 10:29:23;;;;;;;10.02;6.68;;;;;;;23.44;32.16;93293.53;5091315;28;20407;-35
2022/11/04 10:31:50;;;;;;;11.48;7.25;;;;;;;22.68;33.31;93287.94;5091140;28;20403;-36
2022/11/04 10:34:19;;;;;;;8.38;7.07;;;;;;;21.90;34.26;93282.78;5072992;28;20024;-36
2022/11/04 10:36:46;;;;;;;15.45;7.65;;;;;;;21.41;35.50;93290.81;5090895;28;20063;-35
2022/11/04 10:39:24;;;;;;;14.38;7.15;;;;;;;21.08;35.92;93294.03;5073125;28;20269;-35
2022/11/04 10:41:50;;;;;;;10.40;7.07;;;;;;;21.44;36.04;93288.84;5091067;28;20119;-36
2022/11/04 10:44:22;;;;;;;14.68;6.90;;;;;;;21.50;35.50;93281.47;5090921;28;20555;-35
2022/11/04 10:46:54;;;;;;;13.15;6.70;;;;;;;20.83;36.91;93277.22;5090680;28;20073;-35
2022/11/04 10:49:53;;;;;;;16.08;7.93;;;;;;;20.35;38.06;93274.59;5090707;28;20023;-36
2022/11/04 10:52:19;;;;;;;16.30;7.72;;;;;;;20.53;38.19;93274.88;5090993;28;20020;-36
2022/11/04 10:54:47;;;;;;;9.38;6.50;;;;;;;20.76;37.10;93264.22;5072919;28;20027;-35
2022/11/04 10:57:19;;;;;;;12.80;7.75;;;;;;;20.72;37.23;93266.09;5090920;28;20055;-35
2022/11/04 10:59:54;;;;;;;12.40;7.55;;;;;;;20.94;37.07;93259.56;5090670;28;20039;-35
2022/11/04 11:02:46;;;;;;;11.82;6.10;;;;;;;21.37;35.70;93256.91;5090701;28;20020;-35
2022/11/04 11:05:31;;;;;;;12.48;6.80;;;;;;;21.44;35.91;93249.53;5085787;28;20040;-35
2022/11/04 11:07:57;;;;;;;8.77;6.28;;;;;;;21.76;34.69;93248.34;5090125;28;20036;-35
2022/11/04 11:10:28;;;;;;;11.63;7.65;;;;;;;21.86;35.22;93241.16;5090799;28;20441;-33
2022/11/04 11:13:03;;;;;;;10.95;7.03;;;;;;;21.92;34.28;93235.09;5072433;28;20039;-35
2022/11/04 11:15:34;;;;;;;10.32;6.57;;;;;;;21.98;34.75;93229.78;5090705;28;20023;-35
2022/11/04 11:18:20;;;;;;;12.32;6.43;;;;;;;22.79;32.84;93223.06;5090346;28;20016;-35
2022/11/04 11:20:50;;;;;;;8.13;6.95;;;;;;;22.69;32.75;93216.97;5090321;28;20028;-36
2022/11/04 11:23:42;;;;;;;11.88;5.97;;;;;;;22.48;32.94;93215.28;5090289;28;20021;-35
2022/11/04 11:26:10;;;;;;;10.13;7.20;;;;;;;21.93;33.72;93210.53;5072327;28;20110;-35
2022/11/04 11:28:39;;;;;;;9.80;7.22;;;;;;;21.86;34.21;93198.25;5072200;28;20016;-35
2022/11/04 11:31:10;;;;;;;18.10;6.95;;;;;;;21.81;34.16;93207.81;5094282;28;20496;-35
2022/11/04 11:33:46;;;;;;;15.90;7.50;;;;;;;21.76;34.09;93190.06;5077201;28;20043;-35
2022/11/04 11:36:26;;;;;;;13.60;6.38;;;;;;;21.60;34.24;93185.72;5094415;28;20024;-36
2022/11/04 11:39:04;;;;;;;14.77;7.55;;;;;;;21.98;34.39;93186.88;5076655;28;20023;-35
2022/11/04 11:41:35;;;;;;;7.82;5.35;;;;;;;21.80;34.25;93189.50;5094158;28;20024;-35
2022/11/04 11:44:17;;;;;;;10.52;6.25;;;;;;;21.94;34.18;93178.97;5076078;28;20056;-35
2022/11/04 11:46:55;;;;;;;13.57;7.60;;;;;;;22.15;34.35;93167.34;5076066;28;20548;-35
2022/11/04 11:49:33;;;;;;;10.07;6.63;;;;;;;22.18;33.71;93168.13;5076100;28;20054;-36
2022/11/04 11:52:31;;;;;;;12.98;6.82;;;;;;;21.66;35.03;93163.53;5094197;28;20024;-35
2022/11/04 11:55:17;;;;;;;12.45;7.22;;;;;;;21.39;35.47;93139.06;5094386;28;20052;-35
2022/11/04 11:58:25;;;;;;;10.88;6.55;;;;;;;21.32;35.76;93156.22;5076036;28;20060;-35
2022/11/04 12:01:03;;;;;;;9.88;6.75;;;;;;;21.43;35.47;93161.72;5072357;28;20482;-35
2022/11/04 12:03:31;;;;;;;14.60;7.07;;;;;;;21.83;35.21;93151.72;5073711;28;20028;-35
2022/11/04 12:06:34;;;;;;;10.73;6.63;;;;;;;21.80;35.38;93150.91;5073933;28;20025;-35
2022/11/04 12:09:12;;;;;;;11.25;6.47;;;;;;;22.21;34.93;93147.91;5073817;28;20389;-35
2022/11/04 12:11:56;;;;;;;11.35;7.13;;;;;;;22.45;34.15;93142.69;5073478;28;20540;-36